KIWD Weather

FAA AWOS (Automated Weather Observing System)

Weather observations for the last 3 days click here.

KIWD

METAR
KIWD 150706Z AUTO 00000KT 1SM BR VV002 13/13 A2995 RMK AO2 RVRNO PNO $
KIWD 150656Z AUTO 00000KT 1/2SM FG VV002 13/13 A2996 RMK AO2 VIS M1/4V5 SLP143 T01280128 RVRNO PNO $
KIWD 150654Z AUTO 00000KT 3/4SM BR CLR 13/13 A2996 RMK AO2 VIS 1/4V5 RVRNO PNO $
KIWD 150649Z AUTO 00000KT 1 3/4SM BR CLR 13/13 A2996 RMK AO2 VIS 1/2V5 PNO $
KIWD 150556Z AUTO 00000KT 10SM CLR 14/13 A2997 RMK AO2 SLP146 6//// T01390128 10217 20139 402560139 53004 PNO $
KIWD 150524Z AUTO 00000KT 3SM BR CLR 14/14 A2996 RMK AO2 PNO $
TAF
KIWD 150529Z 1506/1606 VRB04KT 5SM BR SCT010 FM151000 VRB03KT 3SM BR BKN010 FM151200 VRB03KT P6SM BKN090